Time;durP1;ratioP1;P1;durP2;ratioP2;P2;SDS_P1;SDS_P2;PMS_P1;PMS_P2;Temp;Humidity;BMP_temperature;BMP_pressure;BME280_temperature;BME280_humidity;BME280_pressure;Samples;Min_cycle;Max_cycle;Signal;HPM_P1;HPM_P2
2022/02/04 00:04:01;;;;;;;;;;;6.00;99.90;;;;;;5042351;28;20522;-58
2022/02/04 00:05:52;;;;;;;18.95;10.73;;;6.00;99.90;;;;;;5049136;28;19982;-59
2022/02/04 00:22:24;;;;;;;16.38;10.75;;;5.90;99.90;;;;;;5033224;28;20500;-60
2022/02/04 00:24:40;;;;;;;17.23;11.00;;;5.90;99.90;;;;;;5040750;28;20394;-60
2022/02/04 00:27:11;;;;;;;16.70;9.57;;;5.90;99.90;;;;;;5040897;28;20029;-59
2022/02/04 00:32:18;;;;;;;16.77;9.30;;;5.90;99.90;;;;;;5044114;28;20029;-59
2022/02/04 00:34:49;;;;;;;14.10;8.93;;;5.90;99.90;;;;;;5039538;28;20041;-58
2022/02/04 00:37:27;;;;;;;14.13;9.50;;;5.90;99.90;;;;;;5037565;28;20025;-59
2022/02/04 00:40:05;;;;;;;16.98;8.30;;;6.00;99.90;;;;;;5042049;28;20043;-57
2022/02/04 00:42:31;;;;;;;15.05;9.07;;;6.00;99.90;;;;;;5034195;28;20107;-60
2022/02/04 00:45:11;;;;;;;14.70;9.82;;;6.00;99.90;;;;;;5048978;28;20451;-59
2022/02/04 00:47:43;;;;;;;12.85;8.35;;;6.00;99.90;;;;;;5037585;28;20017;-59
2022/02/04 00:50:22;;;;;;;13.98;9.25;;;6.00;99.90;;;;;;5044498;28;20030;-58
2022/02/04 00:53:02;;;;;;;11.95;7.63;;;6.00;99.90;;;;;;5035646;28;20026;-60
2022/02/04 00:55:36;;;;;;;11.93;7.82;;;6.00;99.90;;;;;;5043394;28;20100;-59
2022/02/04 01:27:33;;;;;;;9.85;6.85;;;6.00;99.90;;;;;;5034173;28;20060;-58
2022/02/04 01:30:05;;;;;;;10.25;7.40;;;6.10;99.90;;;;;;5031695;28;20072;-60
2022/02/04 01:32:32;;;;;;;15.38;6.78;;;6.00;99.90;;;;;;5039967;28;20437;-60
2022/02/04 01:34:57;;;;;;;10.43;7.07;;;6.10;99.90;;;;;;5042741;28;20580;-60
2022/02/04 01:37:23;;;;;;;10.23;6.75;;;6.00;99.90;;;;;;5034198;28;20039;-60
2022/02/04 01:39:49;;;;;;;9.57;6.63;;;6.00;99.90;;;;;;5036902;28;20029;-59
2022/02/04 01:42:15;;;;;;;9.80;6.55;;;6.00;99.90;;;;;;5044327;28;20166;-59
2022/02/04 01:44:41;;;;;;;9.48;5.80;;;6.00;99.90;;;;;;5044198;28;20436;-59
2022/02/04 01:47:07;;;;;;;9.20;6.90;;;6.00;99.90;;;;;;5044426;28;20029;-59
2022/02/04 01:49:34;;;;;;;9.77;7.05;;;6.00;99.90;;;;;;5048764;28;20018;-59
2022/02/04 01:51:59;;;;;;;9.95;6.30;;;6.00;99.90;;;;;;5039987;28;20043;-60
2022/02/04 01:54:25;;;;;;;9.65;6.10;;;6.00;99.90;;;;;;5038500;28;20029;-57
2022/02/04 01:56:51;;;;;;;10.80;5.68;;;6.00;99.90;;;;;;5037499;28;20116;-57
2022/02/04 01:59:17;;;;;;;8.02;5.60;;;6.00;99.90;;;;;;5044297;28;20040;-59
2022/02/04 02:01:42;;;;;;;7.57;5.75;;;6.00;99.90;;;;;;5046960;28;20356;-59
2022/02/04 02:04:11;;;;;;;6.38;4.95;;;6.00;99.90;;;;;;5037797;28;20057;-58
2022/02/04 02:06:42;;;;;;;6.50;4.57;;;6.00;99.90;;;;;;5045372;28;20066;-58
2022/02/04 02:09:07;;;;;;;6.97;4.80;;;6.00;99.90;;;;;;5040769;28;20075;-60
2022/02/04 02:11:33;;;;;;;7.25;4.85;;;6.10;99.90;;;;;;5032984;28;20029;-57
2022/02/04 02:13:59;;;;;;;5.78;4.57;;;6.10;99.90;;;;;;5036201;28;20029;-60
2022/02/04 02:54:17;;;;;;;5.20;3.67;;;6.10;99.90;;;;;;5045214;28;20032;-60
2022/02/04 02:59:32;;;;;;;5.75;3.35;;;6.20;99.90;;;;;;5034390;28;20036;-59
2022/02/04 03:01:58;;;;;;;3.85;2.88;;;6.10;99.90;;;;;;5045016;28;20049;-59
2022/02/04 03:04:23;;;;;;;5.07;2.70;;;6.10;99.90;;;;;;5043458;28;20052;-59
2022/02/04 03:06:49;;;;;;;4.75;2.88;;;6.20;99.90;;;;;;5038976;28;20491;-55
2022/02/04 03:09:16;;;;;;;5.88;3.60;;;6.20;99.90;;;;;;5042992;28;20104;-58
2022/02/04 03:11:42;;;;;;;5.20;2.53;;;6.20;99.90;;;;;;5051135;28;20036;-58
2022/02/04 03:14:08;;;;;;;3.22;2.80;;;6.20;99.90;;;;;;5044728;28;20486;-58
2022/02/04 03:16:35;;;;;;;3.83;2.30;;;6.20;99.90;;;;;;5037453;28;20100;-63
2022/02/04 03:19:03;;;;;;;3.83;2.72;;;6.20;99.90;;;;;;5032077;28;20079;-60
2022/02/04 03:21:36;;;;;;;3.95;2.97;;;6.20;99.90;;;;;;5040453;28;20125;-58
2022/02/04 03:24:08;;;;;;;3.33;2.70;;;6.20;99.90;;;;;;5046057;28;20033;-59
2022/02/04 03:27:17;;;;;;;5.43;2.78;;;6.30;99.90;;;;;;5036732;28;20037;-56
2022/02/04 03:29:29;;;;;;;4.78;2.53;;;6.30;99.90;;;;;;5037625;28;20171;-59
2022/02/04 03:32:01;;;;;;;4.18;2.85;;;6.30;99.90;;;;;;5038244;28;20049;-59
2022/02/04 03:34:28;;;;;;;5.43;3.28;;;6.30;99.90;;;;;;5042381;28;20401;-59
2022/02/04 03:36:53;;;;;;;5.80;2.92;;;6.30;99.90;;;;;;5038632;28;20392;-57
2022/02/04 03:39:19;;;;;;;3.60;2.42;;;6.20;99.90;;;;;;5046264;28;20086;-57
2022/02/04 03:41:44;;;;;;;5.78;2.85;;;6.20;99.90;;;;;;5037641;28;20033;-58
2022/02/04 03:44:10;;;;;;;5.25;2.50;;;6.30;99.90;;;;;;5044617;28;20067;-60
2022/02/04 03:46:35;;;;;;;6.25;2.72;;;6.20;99.90;;;;;;5040113;28;20088;-60
2022/02/04 03:49:01;;;;;;;6.00;3.20;;;6.30;99.90;;;;;;5037128;28;20029;-60
2022/02/04 03:51:27;;;;;;;4.05;2.83;;;6.30;99.90;;;;;;5044834;28;20028;-60
2022/02/04 03:53:52;;;;;;;4.57;3.10;;;6.20;99.90;;;;;;5036337;28;20025;-60
2022/02/04 03:56:19;;;;;;;5.43;3.67;;;6.20;99.90;;;;;;5038007;28;20483;-59
2022/02/04 03:58:45;;;;;;;6.78;3.35;;;6.30;99.90;;;;;;5031461;28;20446;-58
2022/02/04 04:01:10;;;;;;;6.38;3.80;;;6.30;99.90;;;;;;5042475;28;20064;-59
2022/02/04 04:03:36;;;;;;;4.10;2.97;;;6.30;99.90;;;;;;5041284;28;20037;-59
2022/02/04 04:06:02;;;;;;;5.18;3.13;;;6.40;99.90;;;;;;5041837;28;20030;-59
2022/02/04 04:08:27;;;;;;;4.35;3.03;;;6.40;99.90;;;;;;5034330;28;20087;-59
2022/02/04 04:10:53;;;;;;;5.13;3.30;;;6.40;99.90;;;;;;5036636;28;20542;-58
2022/02/04 04:13:19;;;;;;;4.60;3.30;;;6.40;99.90;;;;;;5045134;28;20025;-60
2022/02/04 04:15:46;;;;;;;7.18;3.90;;;6.40;99.90;;;;;;5045048;28;20021;-60
2022/02/04 04:18:12;;;;;;;7.15;4.57;;;6.40;99.90;;;;;;5030917;28;20029;-57
2022/02/04 04:20:43;;;;;;;6.60;4.50;;;6.40;99.90;;;;;;5036344;28;20037;-60
2022/02/04 04:23:09;;;;;;;8.32;5.07;;;6.40;99.90;;;;;;5039662;28;20121;-58
2022/02/04 04:25:35;;;;;;;7.70;5.10;;;6.40;99.90;;;;;;5041600;28;20022;-59
2022/02/04 04:28:01;;;;;;;7.38;4.40;;;6.40;99.90;;;;;;5041161;28;20044;-57
2022/02/04 04:30:27;;;;;;;7.50;4.32;;;6.30;99.90;;;;;;5039980;28;20061;-58
2022/02/04 04:32:54;;;;;;;6.88;4.18;;;6.40;99.90;;;;;;5032807;28;20498;-59
2022/02/04 04:35:23;;;;;;;5.10;3.85;;;6.40;99.90;;;;;;5037887;28;20491;-59
2022/02/04 04:40:41;;;;;;;5.55;3.67;;;6.40;99.90;;;;;;5037231;28;20375;-60
2022/02/04 05:27:56;;;;;;;4.53;2.78;;;6.30;99.90;;;;;;5038332;28;20064;-59
2022/02/04 05:29:33;;;;;;;4.88;2.72;;;6.30;99.90;;;;;;5035095;28;20120;-60
2022/02/04 05:31:59;;;;;;;3.72;2.55;;;6.30;99.90;;;;;;5042028;28;20137;-60
2022/02/04 05:34:24;;;;;;;11.27;3.42;;;6.40;99.90;;;;;;5038120;28;20060;-60
2022/02/04 05:37:00;;;;;;;3.63;2.35;;;6.40;99.90;;;;;;5037465;28;20049;-59
2022/02/04 05:39:34;;;;;;;6.00;3.10;;;6.40;99.90;;;;;;5043721;28;20087;-60
2022/02/04 05:42:01;;;;;;;7.30;3.78;;;6.40;99.90;;;;;;5037415;28;20083;-59
2022/02/04 05:44:27;;;;;;;8.13;5.72;;;6.40;99.90;;;;;;5039564;28;20029;-59
2022/02/04 05:47:01;;;;;;;7.15;3.60;;;6.40;99.90;;;;;;5039189;28;20021;-60
2022/02/04 05:49:29;;;;;;;;;;;6.40;99.90;;;;;;5044099;28;20021;-58
2022/02/04 05:54:38;;;;;;;5.30;2.40;;;6.40;99.90;;;;;;5036686;28;20029;-60
2022/02/04 05:57:12;;;;;;;3.25;2.28;;;6.40;99.90;;;;;;5045495;28;20458;-60
2022/02/04 06:07:30;;;;;;;55.03;24.70;;;6.40;99.90;;;;;;5035632;28;20512;-60
2022/02/04 06:10:36;;;;;;;107.75;61.83;;;6.40;99.90;;;;;;5041880;28;20488;-59
2022/02/04 06:23:40;;;;;;;4.60;3.15;;;6.40;99.90;;;;;;5035850;28;20071;-59
2022/02/04 06:26:06;;;;;;;6.40;3.50;;;6.40;99.90;;;;;;5041450;28;20075;-59
2022/02/04 06:28:31;;;;;;;4.32;3.35;;;6.40;99.90;;;;;;5041359;28;20512;-60
2022/02/04 06:30:57;;;;;;;5.95;2.50;;;6.40;99.90;;;;;;5037893;28;20036;-60
2022/02/04 06:33:22;;;;;;;7.22;2.33;;;6.40;99.90;;;;;;5043288;28;20036;-60
2022/02/04 06:35:48;;;;;;;4.88;2.85;;;6.30;99.90;;;;;;5038413;28;20029;-60
2022/02/04 06:38:13;;;;;;;4.78;2.17;;;6.30;99.90;;;;;;5036530;28;20475;-59
2022/02/04 06:40:39;;;;;;;4.90;2.90;;;6.30;99.90;;;;;;5039112;28;20025;-60
2022/02/04 06:43:05;;;;;;;5.18;2.88;;;6.30;99.90;;;;;;5036082;28;20036;-59
2022/02/04 06:45:30;;;;;;;4.60;3.03;;;6.20;99.90;;;;;;5037021;28;20061;-60
2022/02/04 06:47:56;;;;;;;9.48;3.33;;;6.30;99.90;;;;;;5036619;28;20525;-60
2022/02/04 06:50:22;;;;;;;4.20;3.03;;;6.30;99.90;;;;;;5043581;28;20517;-60
2022/02/04 06:52:48;;;;;;;3.13;2.60;;;6.30;99.90;;;;;;5041339;28;20237;-60
2022/02/04 06:55:14;;;;;;;5.60;3.67;;;6.20;99.90;;;;;;5034250;28;20604;-60
2022/02/04 06:57:46;;;;;;;3.78;3.05;;;6.30;99.90;;;;;;5038326;28;20043;-60
2022/02/04 07:00:14;;;;;;;3.92;2.67;;;6.30;99.90;;;;;;5039169;28;20073;-60
2022/02/04 07:02:40;;;;;;;3.78;2.30;;;6.20;99.90;;;;;;5039018;28;20113;-60
2022/02/04 07:05:13;;;;;;;4.93;2.35;;;6.30;99.90;;;;;;5037090;28;20500;-54
2022/02/04 07:07:41;;;;;;;3.75;2.97;;;6.30;99.90;;;;;;5040307;28;20036;-59
2022/02/04 07:11:01;;;;;;;3.33;2.20;;;6.20;99.90;;;;;;5037256;28;20021;-60
2022/02/04 07:13:11;;;;;;;3.85;2.28;;;6.30;99.90;;;;;;5039933;28;20072;-60
2022/02/04 07:20:52;;;;;;;6.70;4.30;;;6.30;99.90;;;;;;5040550;28;20044;-60
2022/02/04 07:23:18;;;;;;;5.13;3.40;;;6.30;99.90;;;;;;5042986;28;20029;-59
2022/02/04 07:25:43;;;;;;;11.63;7.05;;;6.30;99.90;;;;;;5041860;28;20037;-59
2022/02/04 07:28:09;;;;;;;10.70;6.45;;;6.30;99.90;;;;;;5040655;28;20248;-59
2022/02/04 07:30:35;;;;;;;9.15;5.97;;;6.40;99.90;;;;;;5049081;28;20108;-60
2022/02/04 07:33:12;;;;;;;6.10;4.18;;;6.40;99.90;;;;;;5031448;28;20769;-60
2022/02/04 07:41:00;;;;;;;10.63;5.72;;;6.30;99.90;;;;;;5036012;28;20032;-60
2022/02/04 07:43:29;;;;;;;8.10;4.55;;;6.40;99.90;;;;;;5034905;28;20491;-57
2022/02/04 07:45:55;;;;;;;7.20;4.50;;;6.30;99.90;;;;;;5045701;28;20089;-60
2022/02/04 07:48:21;;;;;;;5.40;3.47;;;6.30;99.90;;;;;;5037278;28;20064;-59
2022/02/04 07:50:48;;;;;;;3.92;2.58;;;6.30;99.90;;;;;;5043059;28;20049;-59
2022/02/04 07:53:14;;;;;;;6.03;3.55;;;6.30;99.90;;;;;;5035398;28;20017;-58
2022/02/04 07:55:40;;;;;;;5.85;4.30;;;6.30;99.90;;;;;;5044855;28;20021;-58
2022/02/04 07:58:10;;;;;;;4.60;3.22;;;6.30;99.90;;;;;;5043318;28;20029;-59
2022/02/04 08:00:37;;;;;;;5.05;1.90;;;6.30;99.90;;;;;;5039242;28;20037;-59
2022/02/04 08:03:14;;;;;;;5.68;3.75;;;6.40;99.90;;;;;;5030590;28;20072;-59
2022/02/04 08:05:39;;;;;;;5.70;3.00;;;6.40;99.90;;;;;;5035190;28;20085;-60
2022/02/04 08:08:23;;;;;;;4.70;2.42;;;6.40;99.90;;;;;;5043111;28;20529;-60
2022/02/04 08:11:08;;;;;;;2.13;1.90;;;6.50;99.90;;;;;;5037787;28;20478;-60
2022/02/04 08:16:32;;;;;;;3.53;2.00;;;6.50;99.90;;;;;;5036404;28;20402;-60
2022/02/04 08:24:33;;;;;;;2.08;1.52;;;6.60;99.90;;;;;;5036081;28;20034;-60
2022/02/04 08:50:34;;;;;;;4.32;2.53;;;6.80;99.90;;;;;;5033375;28;20673;-59
2022/02/04 08:53:19;;;;;;;4.35;2.70;;;6.80;99.90;;;;;;5042344;28;20037;-60
2022/02/04 08:55:50;;;;;;;4.03;2.50;;;6.70;99.90;;;;;;5038888;28;20037;-59
2022/02/04 09:03:41;;;;;;;5.55;3.17;;;6.70;99.90;;;;;;5032083;28;20411;-59
2022/02/04 09:06:19;;;;;;;8.57;6.13;;;6.70;99.90;;;;;;5040258;28;20029;-60
2022/02/04 09:09:05;;;;;;;14.13;6.70;;;6.70;99.90;;;;;;5037182;28;20044;-59
2022/02/04 09:19:21;;;;;;;7.82;4.18;;;7.00;99.90;;;;;;5038955;28;20030;-60
2022/02/04 09:24:22;;;;;;;16.02;8.70;;;7.40;99.90;;;;;;5037760;28;20053;-58
2022/02/04 09:26:49;;;;;;;32.35;15.02;;;7.60;99.90;;;;;;5037352;28;20025;-58
2022/02/04 09:29:15;;;;;;;22.15;12.00;;;7.80;99.90;;;;;;5028958;28;20403;-60
2022/02/04 09:31:41;;;;;;;100.32;38.25;;;8.00;99.90;;;;;;5033647;28;20036;-60
2022/02/04 09:34:07;;;;;;;21.08;8.95;;;8.10;99.90;;;;;;5035968;28;20017;-60
2022/02/04 09:36:34;;;;;;;12.23;6.60;;;8.10;99.90;;;;;;5037329;28;20048;-59
2022/02/04 09:38:59;;;;;;;20.00;8.77;;;8.00;99.90;;;;;;5042908;28;20061;-60
2022/02/04 09:41:26;;;;;;;22.08;13.82;;;8.10;99.90;;;;;;5036965;28;20064;-58
2022/02/04 09:43:52;;;;;;;13.43;7.22;;;8.30;99.90;;;;;;5042693;28;20029;-60
2022/02/04 09:46:19;;;;;;;13.55;8.20;;;8.30;99.90;;;;;;5030312;28;20026;-60
2022/02/04 09:48:50;;;;;;;6.25;3.85;;;8.30;99.90;;;;;;5044199;28;20030;-60
2022/02/04 09:51:19;;;;;;;13.45;7.22;;;8.40;99.90;;;;;;5031055;28;20883;-59
2022/02/04 10:15:41;;;;;;;5.15;3.15;;;9.20;99.90;;;;;;5042413;28;20025;-59
2022/02/04 10:18:12;;;;;;;9.05;5.63;;;9.20;99.90;;;;;;5033872;28;20033;-60
2022/02/04 10:20:40;;;;;;;5.95;4.03;;;9.20;99.90;;;;;;5042174;28;20055;-59
2022/02/04 10:23:06;;;;;;;6.28;3.42;;;9.20;99.90;;;;;;5039511;28;20531;-60
2022/02/04 10:25:35;;;;;;;6.68;4.60;;;9.30;99.90;;;;;;5042314;28;20033;-59
2022/02/04 10:28:05;;;;;;;24.45;14.05;;;9.20;99.90;;;;;;5046949;28;20085;-60
2022/02/04 10:30:32;;;;;;;11.63;7.20;;;9.10;99.90;;;;;;5035654;28;20028;-60
2022/02/04 10:33:00;;;;;;;4.75;2.65;;;9.10;99.90;;;;;;5040795;28;20029;-58
2022/02/04 10:35:31;;;;;;;4.68;2.75;;;9.20;99.90;;;;;;5039538;28;20030;-60
2022/02/04 10:38:00;;;;;;;3.63;2.47;;;9.10;99.90;;;;;;5038297;28;20025;-60
2022/02/04 10:40:44;;;;;;;5.45;3.05;;;9.00;99.90;;;;;;5036709;28;20037;-59
2022/02/04 10:54:53;;;;;;;5.57;3.30;;;8.90;99.90;;;;;;5032308;28;20025;-60
2022/02/04 10:57:26;;;;;;;5.07;3.28;;;8.90;99.90;;;;;;5035714;28;20028;-60
2022/02/04 11:05:11;;;;;;;5.57;3.70;;;8.90;99.90;;;;;;5036021;28;20021;-59
2022/02/04 11:35:08;;;;;;;;;;;8.40;99.90;;;;;;5040388;28;20096;-59
2022/02/04 11:55:09;;;;;;;1.75;1.10;;;8.50;99.90;;;;;;5032194;28;20095;-56
2022/02/04 11:57:49;;;;;;;1.70;0.68;;;8.60;99.90;;;;;;5040352;28;20029;-57
2022/02/04 12:00:20;;;;;;;1.48;0.65;;;8.50;99.90;;;;;;5038168;28;20079;-60
2022/02/04 12:02:49;;;;;;;2.70;1.50;;;8.50;99.90;;;;;;5041100;28;20052;-59
2022/02/04 12:05:18;;;;;;;1.35;0.70;;;8.40;99.90;;;;;;5035462;28;20029;-60
2022/02/04 12:07:48;;;;;;;1.30;1.00;;;8.40;99.90;;;;;;5039037;28;20086;-59
2022/02/04 12:10:13;;;;;;;1.23;1.05;;;8.30;99.90;;;;;;5048289;28;20025;-60
2022/02/04 12:12:54;;;;;;;2.05;1.05;;;8.20;99.90;;;;;;5032674;28;20028;-60
2022/02/04 12:15:31;;;;;;;1.00;0.88;;;8.20;99.90;;;;;;5044304;28;20021;-59
2022/02/04 12:17:58;;;;;;;0.98;0.77;;;8.20;99.90;;;;;;5050084;28;20033;-58
2022/02/04 12:20:55;;;;;;;2.25;1.50;;;8.20;99.90;;;;;;5043475;28;20068;-60
2022/02/04 12:23:27;;;;;;;13.35;6.65;;;8.20;99.90;;;;;;5034564;28;20021;-58
2022/02/04 12:25:53;;;;;;;14.60;6.60;;;8.20;99.90;;;;;;5035447;28;20017;-60
2022/02/04 12:28:48;;;;;;;14.02;6.88;;;8.20;99.90;;;;;;5035729;28;20404;-59
2022/02/04 12:31:29;;;;;;;20.05;9.40;;;8.30;99.90;;;;;;5041157;28;20054;-58
2022/02/04 12:34:05;;;;;;;24.35;11.50;;;8.40;99.90;;;;;;5031247;28;20112;-60
2022/02/04 12:36:33;;;;;;;17.67;8.15;;;8.40;99.90;;;;;;5037270;28;20099;-60
2022/02/04 12:39:05;;;;;;;16.52;8.40;;;8.40;99.90;;;;;;5039103;28;20024;-58
2022/02/04 12:41:37;;;;;;;9.75;5.57;;;8.40;99.90;;;;;;5041539;28;20071;-60
2022/02/04 12:44:06;;;;;;;10.73;5.18;;;8.40;99.90;;;;;;5029777;28;20052;-60
2022/02/04 12:46:33;;;;;;;10.80;4.55;;;8.40;99.90;;;;;;5030624;28;20030;-60
2022/02/04 12:49:06;;;;;;;11.07;5.88;;;8.40;99.90;;;;;;5029812;28;20041;-60
2022/02/04 12:51:45;;;;;;;8.88;4.18;;;8.30;99.90;;;;;;5030695;28;20036;-60
2022/02/04 12:54:13;;;;;;;11.25;5.95;;;8.30;99.90;;;;;;5034456;28;20057;-60
2022/02/04 13:02:25;;;;;;;7.85;4.13;;;8.00;99.90;;;;;;5033984;28;20021;-60
2022/02/04 13:07:50;;;;;;;;;;;7.80;99.90;;;;;;5042866;28;20116;-60
2022/02/04 13:10:21;;;;;;;6.25;4.05;;;7.80;99.90;;;;;;5029890;28;19924;-60
2022/02/04 13:12:49;;;;;;;6.78;3.88;;;7.80;99.90;;;;;;5039868;28;20056;-59
2022/02/04 13:15:15;;;;;;;3.63;2.45;;;7.80;99.90;;;;;;5036686;28;20720;-60
2022/02/04 13:17:40;;;;;;;10.73;5.35;;;7.80;99.90;;;;;;5047206;28;20119;-60
2022/02/04 13:20:06;;;;;;;9.88;5.60;;;7.80;99.90;;;;;;5033703;28;20041;-59
2022/02/04 13:22:32;;;;;;;7.80;3.88;;;7.80;99.90;;;;;;5050111;28;20029;-57
2022/02/04 13:25:14;;;;;;;5.40;2.83;;;7.80;99.90;;;;;;5047351;28;20036;-60
2022/02/04 13:28:03;;;;;;;12.93;6.95;;;7.80;99.90;;;;;;5035756;28;20026;-60
2022/02/04 13:30:33;;;;;;;8.88;4.72;;;7.80;99.90;;;;;;5039220;28;20099;-60
2022/02/04 13:33:00;;;;;;;12.43;6.18;;;7.80;99.90;;;;;;5039754;28;20025;-60
2022/02/04 13:35:36;;;;;;;4.45;2.10;;;7.80;99.90;;;;;;5035891;28;20060;-60
2022/02/04 13:38:13;;;;;;;16.88;6.82;;;7.80;99.90;;;;;;5038450;28;20120;-59
2022/02/04 13:40:45;;;;;;;9.60;4.65;;;7.80;99.90;;;;;;5033316;28;20104;-58
2022/02/04 13:43:30;;;;;;;1.85;1.23;;;7.80;99.90;;;;;;5048571;28;20498;-58
2022/02/04 13:46:09;;;;;;;1.55;1.05;;;7.80;99.90;;;;;;5041392;28;20127;-60
2022/02/04 13:48:52;;;;;;;2.92;1.63;;;7.80;99.90;;;;;;5049026;28;20112;-59
2022/02/04 13:51:37;;;;;;;2.30;1.15;;;7.90;99.90;;;;;;5033899;28;20022;-60
2022/02/04 13:54:24;;;;;;;1.65;1.30;;;7.90;99.90;;;;;;5043047;28;20031;-60
2022/02/04 13:57:09;;;;;;;3.88;2.13;;;7.90;99.90;;;;;;5053154;28;20036;-60
2022/02/04 13:59:42;;;;;;;;;;;7.90;99.90;;;;;;5036820;28;20100;-58
2022/02/04 14:02:16;;;;;;;2.70;1.90;;;7.90;99.90;;;;;;5045534;28;19912;-60
2022/02/04 14:04:53;;;;;;;2.08;1.48;;;7.90;99.90;;;;;;5034921;28;20483;-59
2022/02/04 14:07:22;;;;;;;3.00;1.50;;;8.00;99.90;;;;;;5044428;28;20125;-57
2022/02/04 14:09:56;;;;;;;4.10;1.52;;;7.90;99.90;;;;;;5039466;28;20765;-56
2022/02/04 14:12:23;;;;;;;3.30;1.58;;;8.00;99.90;;;;;;5051626;28;20762;-58
2022/02/04 14:15:00;;;;;;;2.05;1.13;;;8.00;99.90;;;;;;5047075;28;20047;-58
2022/02/04 14:17:28;;;;;;;2.78;1.65;;;8.00;99.90;;;;;;5047490;28;20159;-59
2022/02/04 14:19:54;;;;;;;2.80;1.75;;;8.00;99.90;;;;;;5040914;28;20517;-56
2022/02/04 14:22:20;;;;;;;2.60;1.60;;;8.10;99.90;;;;;;5035497;28;20029;-57
2022/02/04 14:24:45;;;;;;;2.22;1.55;;;8.10;99.90;;;;;;5032933;28;20025;-59
2022/02/04 14:27:11;;;;;;;2.63;1.42;;;8.30;99.90;;;;;;5038078;28;20402;-58
2022/02/04 14:29:48;;;;;;;3.55;2.33;;;8.40;99.90;;;;;;5048057;28;20029;-59
2022/02/04 14:32:23;;;;;;;3.15;1.60;;;8.50;99.90;;;;;;5036817;28;20033;-59
2022/02/04 14:51:44;;;;;;;3.13;1.83;;;8.50;99.90;;;;;;5030701;28;20406;-58
2022/02/04 14:54:25;;;;;;;3.22;1.70;;;8.50;99.90;;;;;;5048068;28;20035;-59
2022/02/04 15:00:08;;;;;;;14.55;6.30;;;8.50;99.90;;;;;;5047830;28;20513;-58
2022/02/04 15:02:27;;;;;;;22.75;9.35;;;8.40;99.90;;;;;;5040319;28;20151;-57
2022/02/04 15:04:54;;;;;;;15.10;5.75;;;8.30;99.90;;;;;;5051390;28;20029;-57
2022/02/04 15:07:20;;;;;;;20.20;8.63;;;8.30;99.90;;;;;;5037323;28;20026;-59
2022/02/04 15:09:53;;;;;;;51.30;19.90;;;8.30;99.90;;;;;;5038818;28;20033;-59
2022/02/04 15:12:19;;;;;;;6.05;2.13;;;8.30;99.90;;;;;;5039789;28;20677;-58
2022/02/04 15:14:45;;;;;;;14.88;6.15;;;8.30;99.90;;;;;;5038175;28;20034;-60
2022/02/04 15:17:10;;;;;;;23.60;10.32;;;8.20;99.90;;;;;;5034460;28;20080;-56
2022/02/04 15:19:36;;;;;;;68.95;29.83;;;8.20;99.90;;;;;;5039033;28;20025;-57
2022/02/04 15:22:07;;;;;;;11.60;6.38;;;8.20;99.90;;;;;;5033736;28;20029;-60
2022/02/04 15:24:32;;;;;;;16.25;10.15;;;8.20;99.90;;;;;;5030919;28;20021;-57
2022/02/04 15:26:59;;;;;;;4.93;2.90;;;8.10;99.90;;;;;;5039792;28;20524;-60
2022/02/04 15:29:25;;;;;;;3.03;1.77;;;8.10;99.90;;;;;;5031758;28;20407;-59
2022/02/04 15:31:55;;;;;;;3.35;1.77;;;8.00;99.90;;;;;;5045223;28;20069;-59
2022/02/04 15:34:22;;;;;;;16.15;5.30;;;8.10;99.90;;;;;;5042410;28;20501;-58
2022/02/04 15:36:49;;;;;;;6.20;2.20;;;8.00;99.90;;;;;;5043954;28;20474;-58
2022/02/04 15:39:23;;;;;;;5.10;1.92;;;8.00;99.90;;;;;;5044068;28;20041;-60
2022/02/04 15:41:53;;;;;;;4.47;1.95;;;8.00;99.90;;;;;;5038184;28;20036;-58
2022/02/04 15:57:32;;;;;;;13.35;4.07;;;7.90;99.90;;;;;;5035923;28;20025;-59
2022/02/04 16:04:51;;;;;;;6.85;3.65;;;7.80;99.90;;;;;;5038827;28;20052;-58
2022/02/04 16:07:19;;;;;;;6.13;3.22;;;7.70;99.90;;;;;;5037290;28;20572;-60
2022/02/04 16:09:50;;;;;;;11.70;4.70;;;7.60;99.90;;;;;;5037218;28;20100;-59
2022/02/04 16:12:26;;;;;;;8.30;3.15;;;7.50;99.90;;;;;;5043757;28;20024;-58
2022/02/04 16:15:02;;;;;;;11.20;5.50;;;7.40;99.90;;;;;;5037556;28;20074;-58
2022/02/04 16:17:35;;;;;;;8.60;3.17;;;7.30;99.90;;;;;;5033733;28;20013;-58
2022/02/04 16:22:53;;;;;;;10.43;4.88;;;7.10;99.90;;;;;;5038840;28;20022;-58
2022/02/04 16:30:11;;;;;;;31.98;13.18;;;7.00;99.90;;;;;;5039208;28;20162;-57
2022/02/04 16:32:36;;;;;;;20.85;7.43;;;6.90;99.90;;;;;;5041789;28;20021;-58
2022/02/04 16:35:04;;;;;;;19.67;8.23;;;6.90;99.90;;;;;;5032475;28;20419;-58
2022/02/04 16:37:34;;;;;;;21.70;10.10;;;6.90;99.90;;;;;;5041413;28;20057;-58
2022/02/04 16:40:04;;;;;;;21.98;7.78;;;6.90;99.90;;;;;;5044395;28;20028;-59
2022/02/04 16:42:31;;;;;;;13.85;5.80;;;6.90;99.90;;;;;;5044390;28;20028;-59
2022/02/04 16:44:57;;;;;;;30.13;12.57;;;6.90;99.90;;;;;;5033608;28;20025;-58
2022/02/04 16:47:23;;;;;;;14.13;6.38;;;6.90;99.90;;;;;;5029469;28;20033;-59
2022/02/04 16:49:48;;;;;;;30.50;10.25;;;6.90;99.90;;;;;;5029993;28;20036;-59
2022/02/04 16:52:15;;;;;;;12.18;5.25;;;6.90;99.90;;;;;;5034827;28;20027;-58
2022/02/04 16:54:42;;;;;;;12.07;6.80;;;6.90;99.90;;;;;;5034087;28;20029;-59
2022/02/04 16:57:07;;;;;;;6.75;2.08;;;6.90;99.90;;;;;;5036847;28;20021;-59
2022/02/04 16:59:33;;;;;;;9.32;2.35;;;6.90;99.90;;;;;;5042121;28;20029;-57
2022/02/04 17:02:00;;;;;;;5.15;2.38;;;6.90;99.90;;;;;;5035205;28;20032;-58
2022/02/04 17:04:25;;;;;;;8.73;4.18;;;6.90;99.90;;;;;;5040824;28;20036;-60
2022/02/04 17:06:59;;;;;;;7.13;4.53;;;6.90;99.90;;;;;;5031748;28;20044;-59
2022/02/04 17:09:30;;;;;;;8.77;3.13;;;6.90;99.90;;;;;;5038339;28;20033;-60
2022/02/04 17:12:11;;;;;;;4.53;2.45;;;6.80;99.90;;;;;;5033888;28;20029;-59
2022/02/04 17:14:37;;;;;;;1.60;0.90;;;6.80;99.90;;;;;;5043410;28;20031;-59
2022/02/04 17:17:06;;;;;;;5.00;1.98;;;6.80;99.90;;;;;;5048174;28;20048;-59
2022/02/04 17:19:40;;;;;;;3.30;1.00;;;6.70;99.90;;;;;;5051615;28;20111;-57
2022/02/04 17:22:07;;;;;;;2.35;1.23;;;6.70;99.90;;;;;;5039102;28;20029;-59
2022/02/04 17:24:33;;;;;;;5.30;1.40;;;6.60;99.90;;;;;;5046122;28;20029;-57
2022/02/04 17:27:00;;;;;;;3.22;1.20;;;6.50;99.90;;;;;;5037826;28;20029;-59
2022/02/04 17:29:30;;;;;;;1.85;0.98;;;6.30;99.90;;;;;;5036152;28;20032;-59
2022/02/04 17:31:56;;;;;;;1.42;0.82;;;6.20;99.90;;;;;;5038133;28;20247;-59
2022/02/04 17:34:22;;;;;;;2.63;1.50;;;6.10;99.90;;;;;;5046863;28;20021;-59
2022/02/04 17:36:47;;;;;;;2.97;1.67;;;6.00;99.90;;;;;;5038537;28;20037;-59
2022/02/04 17:39:22;;;;;;;3.03;0.90;;;5.90;99.90;;;;;;5043086;28;20029;-59
2022/02/04 17:41:51;;;;;;;13.57;4.65;;;5.80;99.90;;;;;;5042485;28;20074;-59
2022/02/04 17:44:18;;;;;;;1.67;1.25;;;5.70;99.90;;;;;;5045131;28;20021;-60
2022/02/04 17:46:45;;;;;;;3.42;1.00;;;5.60;99.90;;;;;;5043459;28;20021;-60
2022/02/04 17:49:38;;;;;;;1.42;1.10;;;5.40;99.90;;;;;;5042592;28;20116;-57
2022/02/04 17:52:20;;;;;;;1.50;1.10;;;5.30;99.90;;;;;;5045825;28;20402;-60
2022/02/04 17:54:56;;;;;;;1.48;1.10;;;5.10;99.90;;;;;;5037721;28;20152;-56
2022/02/04 17:57:36;;;;;;;0.88;0.88;;;5.10;99.90;;;;;;5038257;28;20024;-58
2022/02/04 18:00:30;;;;;;;3.40;1.20;;;5.00;99.90;;;;;;5041749;28;20021;-59
2022/02/04 18:03:04;;;;;;;1.08;0.98;;;5.00;99.90;;;;;;5040207;28;20079;-59
2022/02/04 18:05:41;;;;;;;2.72;0.90;;;4.90;99.90;;;;;;5047791;28;20036;-58
2022/02/04 18:08:08;;;;;;;1.17;1.08;;;4.80;99.90;;;;;;5041377;28;20048;-56
2022/02/04 18:10:34;;;;;;;1.42;0.88;;;4.80;99.90;;;;;;5046315;28;20025;-58
2022/02/04 18:13:00;;;;;;;1.63;1.20;;;4.80;99.90;;;;;;5044553;28;20253;-60
2022/02/04 18:15:26;;;;;;;1.88;1.33;;;4.80;99.90;;;;;;5042573;28;20017;-58
2022/02/04 18:17:52;;;;;;;5.47;2.67;;;4.70;99.90;;;;;;5043188;28;20029;-59
2022/02/04 18:20:17;;;;;;;2.38;1.65;;;4.70;99.90;;;;;;5043278;28;20083;-58
2022/02/04 18:22:46;;;;;;;3.40;2.95;;;4.70;99.90;;;;;;5043737;28;20036;-59
2022/02/04 18:25:12;;;;;;;3.45;1.88;;;4.70;99.90;;;;;;5043709;28;20438;-56
2022/02/04 18:27:39;;;;;;;3.33;2.45;;;4.70;99.90;;;;;;5045768;28;20030;-58
2022/02/04 18:30:06;;;;;;;3.20;2.55;;;4.70;99.90;;;;;;5044220;28;20051;-59
2022/02/04 18:32:34;;;;;;;3.40;2.25;;;4.70;99.90;;;;;;5039818;28;20025;-59
2022/02/04 18:35:01;;;;;;;3.92;2.85;;;4.70;99.90;;;;;;5046431;28;20024;-60
2022/02/04 18:37:38;;;;;;;4.35;3.17;;;4.70;99.90;;;;;;5039422;28;20048;-60
2022/02/04 18:45:24;;;;;;;5.95;4.90;;;4.60;99.90;;;;;;5040256;28;20137;-60
2022/02/04 18:48:12;;;;;;;4.45;3.97;;;4.50;99.90;;;;;;5035300;28;20108;-57
2022/02/04 18:51:02;;;;;;;10.15;4.78;;;4.50;99.90;;;;;;5037616;28;20075;-59
2022/02/04 18:58:24;;;;;;;86.72;35.00;;;4.30;99.90;;;;;;5049109;28;20029;-59
2022/02/04 19:00:52;;;;;;;43.65;20.75;;;4.30;99.90;;;;;;5037975;28;20030;-60
2022/02/04 19:03:24;;;;;;;12.00;5.90;;;4.30;99.90;;;;;;5044267;28;20715;-58
2022/02/04 19:08:33;;;;;;;7.00;2.67;;;4.00;99.90;;;;;;5044510;28;20029;-60
2022/02/04 19:10:59;;;;;;;5.22;2.88;;;3.90;99.90;;;;;;5048356;28;20021;-60
2022/02/04 19:13:36;;;;;;;3.22;2.13;;;3.90;99.90;;;;;;5040868;28;20037;-58
2022/02/04 19:16:10;;;;;;;4.22;2.28;;;3.90;99.90;;;;;;5038543;28;20033;-53